Terminal Aerodrome Forecast
Issued by NWS Pueblo, CO

Current Version | Previous Version | Text Only | Print | Product List | Glossary On
Versions: 1 2 3 4 5 6 7 8 9 10 11 12 13 14 15 16 17 18 19 20 21 22 23 24 25 26 27 28 29 30 31 32 33 34 35 36 37 38 39 40 41 42 43 44 45 46 47 48 49 50
000
FTUS45 KPUB 191417 AAA
TAFALS
TAF AMD
KALS 191417Z 1914/2012 VRB04KT 2SM BR OVC002
     FM191600 20005KT P6SM SCT006
     FM192000 23008KT P6SM FEW015 SCT150
     FM200300 20010KT P6SM VCSH SCT005 BKN050
     FM200900 20006KT P6SM FEW030 BKN090=

USA.gov is the U.S. government's official web portal to all federal, state and local government web resources and services.